createdAt,value
2023-03-11T00:01:45.342Z,93807.44
2023-03-11T00:04:11.676Z,93794.06
2023-03-11T00:06:38.000Z,93788.72
2023-03-11T00:09:04.336Z,93796.84
2023-03-11T00:11:30.655Z,93809.06
2023-03-11T00:13:56.990Z,93817.72
2023-03-11T00:16:23.347Z,93824.91
2023-03-11T00:18:49.674Z,93806.63
2023-03-11T00:21:15.990Z,93799.78
2023-03-11T00:23:42.318Z,93807.78
2023-03-11T00:26:08.653Z,93819.19
2023-03-11T00:28:34.989Z,93807.31
2023-03-11T00:31:01.339Z,93801.13
2023-03-11T00:33:27.663Z,93807.81
2023-03-11T00:35:54.037Z,93801.75
2023-03-11T00:38:20.419Z,93797.06
2023-03-11T00:40:46.775Z,93800.81
2023-03-11T00:43:13.101Z,93807.28
2023-03-11T00:45:39.434Z,93813.47
2023-03-11T00:48:05.753Z,93826.84
2023-03-11T00:50:32.066Z,93821.44
2023-03-11T00:52:58.415Z,93808.28
2023-03-11T00:55:24.704Z,93813.81
2023-03-11T00:57:51.011Z,93828.66
2023-03-11T01:00:17.315Z,93816.44
2023-03-11T01:02:43.659Z,93819.69
2023-03-11T01:05:09.969Z,93822.28
2023-03-11T01:07:36.298Z,93818.34
2023-03-11T01:10:02.639Z,93811.63
2023-03-11T01:12:28.956Z,93830.41
2023-03-11T01:14:55.269Z,93829.75
2023-03-11T01:17:21.575Z,93829.75
2023-03-11T01:19:47.904Z,93814.63
2023-03-11T01:22:14.221Z,93799.78
2023-03-11T01:24:40.533Z,93795.53
2023-03-11T01:27:06.852Z,93790.28
2023-03-11T01:29:33.158Z,93780.09
2023-03-11T01:31:59.501Z,93772.78
2023-03-11T01:34:25.849Z,93762.47
2023-03-11T01:36:52.178Z,93753.13
2023-03-11T01:39:18.490Z,93746.88
2023-03-11T01:41:44.803Z,93746.31
2023-03-11T01:44:11.105Z,93737.28
2023-03-11T01:46:37.480Z,93723.75
2023-03-11T01:49:03.815Z,93720.94
2023-03-11T01:51:30.132Z,93716.94
2023-03-11T01:53:56.429Z,93711.16
2023-03-11T01:56:22.750Z,93710.34
2023-03-11T01:58:49.061Z,93707.13
2023-03-11T02:01:15.410Z,93704.72
2023-03-11T02:03:41.748Z,93703.72
2023-03-11T02:06:08.081Z,93706.84
2023-03-11T02:08:34.409Z,93712.09
2023-03-11T02:11:00.706Z,93697.88
2023-03-11T02:13:27.013Z,93699.72
2023-03-11T02:15:53.338Z,93706.38
2023-03-11T02:18:19.660Z,93701.50
2023-03-11T02:20:45.971Z,93680.72
2023-03-11T02:23:12.274Z,93685.94
2023-03-11T02:25:38.655Z,93659.34
2023-03-11T02:28:05.108Z,93637.31
2023-03-11T02:30:31.428Z,93637.00
2023-03-11T02:32:57.741Z,93647.94
2023-03-11T02:35:24.067Z,93671.00
2023-03-11T02:37:50.400Z,93682.44
2023-03-11T02:40:16.690Z,93677.03
2023-03-11T02:42:42.998Z,93687.78
2023-03-11T02:45:09.301Z,93680.63
2023-03-11T02:47:35.653Z,93680.47
2023-03-11T02:50:02.134Z,93665.50
2023-03-11T02:52:28.460Z,93667.53
2023-03-11T02:54:54.781Z,93667.31
2023-03-11T02:57:21.111Z,93647.16
2023-03-11T02:59:47.430Z,93635.41
2023-03-11T03:02:13.752Z,93635.34
2023-03-11T03:04:40.056Z,93623.38
2023-03-11T03:07:06.379Z,93615.44
2023-03-11T03:09:32.702Z,93610.44
2023-03-11T03:11:59.024Z,93619.28
2023-03-11T03:14:25.326Z,93623.81
2023-03-11T03:16:51.762Z,93626.56
2023-03-11T03:19:18.176Z,93619.44
2023-03-11T03:21:44.494Z,93610.38
2023-03-11T03:24:10.814Z,93594.44
2023-03-11T03:26:37.118Z,93583.34
2023-03-11T03:29:03.430Z,93591.06
2023-03-11T03:31:29.782Z,93597.22
2023-03-11T03:33:56.092Z,93588.06
2023-03-11T03:36:22.403Z,93609.16
2023-03-11T03:38:48.742Z,93606.47
2023-03-11T03:41:15.057Z,93595.84
2023-03-11T03:43:41.366Z,93607.19
2023-03-11T03:46:07.710Z,93596.63
2023-03-11T03:48:34.102Z,93610.50
2023-03-11T03:51:00.402Z,93606.34
2023-03-11T03:53:26.696Z,93596.97
2023-03-11T03:55:53.021Z,93598.13
2023-03-11T03:58:19.328Z,93581.03
2023-03-11T04:00:45.630Z,93592.47
2023-03-11T04:03:12.019Z,93573.84
2023-03-11T04:05:38.361Z,93542.78
2023-03-11T04:08:04.670Z,93544.22
2023-03-11T04:10:30.970Z,93578.69
2023-03-11T04:12:57.290Z,93610.50
2023-03-11T04:15:23.630Z,93626.78
2023-03-11T04:17:49.966Z,93612.13
2023-03-11T04:20:16.284Z,93595.16
2023-03-11T04:22:42.590Z,93574.38
2023-03-11T04:25:08.917Z,93598.88
2023-03-11T04:27:35.244Z,93585.31
2023-03-11T04:30:01.587Z,93586.75
2023-03-11T04:32:27.979Z,93580.19
2023-03-11T04:34:54.301Z,93555.84
2023-03-11T04:37:20.611Z,93522.72
2023-03-11T04:39:46.913Z,93506.69
2023-03-11T04:42:13.224Z,93575.59
2023-03-11T04:44:39.547Z,93618.44
2023-03-11T04:47:05.858Z,93630.78
2023-03-11T04:49:32.178Z,93612.50
2023-03-11T04:51:58.479Z,93604.84
2023-03-11T04:54:24.782Z,93608.91
2023-03-11T04:56:51.094Z,93603.03
2023-03-11T04:59:17.407Z,93597.00
2023-03-11T05:01:43.729Z,93589.66
2023-03-11T05:04:10.119Z,93608.38
2023-03-11T05:06:36.453Z,93599.34
2023-03-11T05:09:02.750Z,93586.94
2023-03-11T05:11:29.085Z,93596.59
2023-03-11T05:13:55.414Z,93594.06
2023-03-11T05:16:21.860Z,93592.25
2023-03-11T05:18:48.225Z,93594.59
2023-03-11T05:21:14.534Z,93597.22
2023-03-11T05:23:40.840Z,93598.22
2023-03-11T05:26:07.140Z,93593.81
2023-03-11T05:28:33.462Z,93599.03
2023-03-11T05:30:59.790Z,93603.06
2023-03-11T05:33:26.110Z,93605.50
2023-03-11T05:35:52.472Z,93613.72
2023-03-11T05:38:18.785Z,93613.44
2023-03-11T05:40:45.105Z,93622.34
2023-03-11T05:43:11.436Z,93613.22
2023-03-11T05:45:37.748Z,93615.94
2023-03-11T05:48:04.065Z,93609.81
2023-03-11T05:50:30.362Z,93616.22
2023-03-11T05:52:56.660Z,93618.19
2023-03-11T05:55:22.964Z,93622.41
2023-03-11T05:57:49.294Z,93618.88
2023-03-11T06:00:15.604Z,93618.88
2023-03-11T06:02:41.939Z,93617.72
2023-03-11T06:05:08.682Z,93609.88
2023-03-11T06:07:35.380Z,93608.09
2023-03-11T06:10:01.710Z,93610.16
2023-03-11T06:12:28.037Z,93619.00
2023-03-11T06:14:54.339Z,93611.34
2023-03-11T06:17:20.642Z,93606.94
2023-03-11T06:19:46.972Z,93613.59
2023-03-11T06:22:13.275Z,93623.53
2023-03-11T06:24:39.593Z,93617.75
2023-03-11T06:27:05.925Z,93620.66
2023-03-11T06:29:32.273Z,93620.91
2023-03-11T06:31:58.594Z,93623.72
2023-03-11T06:34:24.958Z,93623.59
2023-03-11T06:36:51.263Z,93626.88
2023-03-11T06:39:17.587Z,93622.56
2023-03-11T06:41:43.909Z,93625.09
2023-03-11T06:44:10.229Z,93625.53
2023-03-11T06:46:36.540Z,93624.44
2023-03-11T06:49:02.855Z,93632.13
2023-03-11T06:51:29.187Z,93630.03
2023-03-11T06:53:55.510Z,93614.63
2023-03-11T06:56:21.829Z,93617.66
2023-03-11T06:58:48.176Z,93630.84
2023-03-11T07:01:14.619Z,93632.28
2023-03-11T07:03:41.014Z,93647.94
2023-03-11T07:06:07.342Z,93658.88
2023-03-11T07:08:33.651Z,93658.69
2023-03-11T07:10:59.948Z,93666.16
2023-03-11T07:13:26.252Z,93668.22
2023-03-11T07:15:52.575Z,93659.13
2023-03-11T07:18:18.893Z,93668.13
2023-03-11T07:20:45.208Z,93680.84
2023-03-11T07:23:11.524Z,93672.75
2023-03-11T07:25:37.833Z,93665.91
2023-03-11T07:28:04.162Z,93666.47
2023-03-11T07:30:30.529Z,93680.69
2023-03-11T07:32:56.886Z,93675.00
2023-03-11T07:35:23.280Z,93682.56
2023-03-11T07:37:49.608Z,93686.19
2023-03-11T07:40:16.223Z,93691.41
2023-03-11T07:42:42.609Z,93706.19
2023-03-11T07:45:08.951Z,93706.56
2023-03-11T07:47:35.273Z,93706.25
2023-03-11T07:50:01.594Z,93717.56
2023-03-11T07:52:27.900Z,93725.66
2023-03-11T07:54:54.206Z,93732.28
2023-03-11T07:57:20.537Z,93737.16
2023-03-11T07:59:46.843Z,93734.09
2023-03-11T08:02:13.219Z,93737.59
2023-03-11T08:04:39.546Z,93742.84
2023-03-11T08:07:05.858Z,93742.69
2023-03-11T08:09:32.170Z,93769.22
2023-03-11T08:11:58.494Z,93774.59
2023-03-11T08:14:24.813Z,93782.81
2023-03-11T08:16:51.143Z,93788.06
2023-03-11T08:19:17.472Z,93788.84
2023-03-11T08:21:43.774Z,93789.22
2023-03-11T08:24:10.077Z,93788.25
2023-03-11T08:26:36.396Z,93798.16
2023-03-11T08:29:02.713Z,93794.13
2023-03-11T08:31:29.159Z,93803.28
2023-03-11T08:33:55.529Z,93806.88
2023-03-11T08:36:21.941Z,93821.22
2023-03-11T08:38:48.322Z,93825.97
2023-03-11T08:41:14.699Z,93825.31
2023-03-11T08:43:41.030Z,93826.25
2023-03-11T08:46:07.532Z,93812.06
2023-03-11T08:48:33.999Z,93806.00
2023-03-11T08:51:00.323Z,93808.28
2023-03-11T08:53:26.642Z,93811.66
2023-03-11T08:55:52.991Z,93823.91
2023-03-11T08:58:19.308Z,93833.19
2023-03-11T09:00:45.677Z,93841.16
2023-03-11T09:03:12.069Z,93851.13
2023-03-11T09:05:38.439Z,93855.88
2023-03-11T09:08:05.740Z,93858.03
2023-03-11T09:10:32.161Z,93861.44
2023-03-11T09:12:58.475Z,93862.22
2023-03-11T09:15:24.781Z,93874.31
2023-03-11T09:17:51.088Z,93875.94
2023-03-11T09:20:17.401Z,93873.94
2023-03-11T09:22:43.721Z,93882.91
2023-03-11T09:25:10.028Z,93885.88
2023-03-11T09:27:36.371Z,93887.97
2023-03-11T09:30:02.688Z,93887.78
2023-03-11T09:32:29.012Z,93889.78
2023-03-11T09:34:55.327Z,93897.94
2023-03-11T09:37:21.636Z,93893.53
2023-03-11T09:39:47.940Z,93900.53
2023-03-11T09:42:14.249Z,93910.44
2023-03-11T09:44:40.570Z,93897.97
2023-03-11T09:47:06.888Z,93908.25
2023-03-11T09:49:33.193Z,93909.22
2023-03-11T09:51:59.539Z,93918.06
2023-03-11T09:54:25.858Z,93918.91
2023-03-11T09:56:52.168Z,93914.50
2023-03-11T09:59:18.494Z,93907.28
2023-03-11T10:01:44.854Z,93910.75
2023-03-11T10:04:11.196Z,93907.78
2023-03-11T10:06:37.524Z,93909.91
2023-03-11T10:09:03.835Z,93900.94
2023-03-11T10:11:30.156Z,93906.31
2023-03-11T10:13:56.488Z,93908.09
2023-03-11T10:16:22.825Z,93913.81
2023-03-11T10:18:49.144Z,93912.03
2023-03-11T10:21:15.457Z,93900.41
2023-03-11T10:23:41.766Z,93909.06
2023-03-11T10:26:08.093Z,93902.22
2023-03-11T10:28:34.449Z,93904.69
2023-03-11T10:31:00.760Z,93900.19
2023-03-11T10:33:27.128Z,93901.66
2023-03-11T10:35:53.454Z,93911.25
2023-03-11T10:38:19.790Z,93913.00
2023-03-11T10:40:46.114Z,93914.31
2023-03-11T10:43:12.411Z,93914.63
2023-03-11T10:45:38.788Z,93913.81
2023-03-11T10:48:05.155Z,93911.88
2023-03-11T10:50:31.462Z,93913.03
2023-03-11T10:52:57.762Z,93916.63
2023-03-11T10:55:24.071Z,93916.25
2023-03-11T10:57:50.375Z,93908.16
2023-03-11T11:00:16.679Z,93902.09
2023-03-11T11:02:43.903Z,93904.69
2023-03-11T11:05:10.222Z,93910.50
2023-03-11T11:07:36.547Z,93924.47
2023-03-11T11:10:02.861Z,93918.97
2023-03-11T11:12:29.167Z,93921.59
2023-03-11T11:14:55.480Z,93919.34
2023-03-11T11:17:21.786Z,93916.50
2023-03-11T11:19:48.097Z,93916.63
2023-03-11T11:22:14.434Z,93916.63
2023-03-11T11:24:40.738Z,93909.94
2023-03-11T11:27:07.046Z,93914.63
2023-03-11T11:29:33.386Z,93916.72
2023-03-11T11:31:59.710Z,93921.38
2023-03-11T11:34:26.048Z,93907.88
2023-03-11T11:36:52.385Z,93915.88
2023-03-11T11:39:18.690Z,93912.97
2023-03-11T11:41:45.033Z,93909.72
2023-03-11T11:44:11.364Z,93907.38
2023-03-11T11:46:37.666Z,93919.97
2023-03-11T11:49:03.990Z,93919.22
2023-03-11T11:51:30.315Z,93914.13
2023-03-11T11:53:56.638Z,93909.63
2023-03-11T11:56:22.964Z,93900.28
2023-03-11T11:58:49.292Z,93900.78
2023-03-11T12:01:15.599Z,93897.75
2023-03-11T12:03:41.963Z,93904.72
2023-03-11T12:06:08.297Z,93901.22
2023-03-11T12:08:34.624Z,93905.03
2023-03-11T12:11:00.916Z,93904.03
2023-03-11T12:13:27.217Z,93911.88
2023-03-11T12:15:53.600Z,93918.84
2023-03-11T12:18:19.940Z,93919.34
2023-03-11T12:20:46.246Z,93921.97
2023-03-11T12:23:12.558Z,93910.44
2023-03-11T12:25:38.887Z,93911.31
2023-03-11T12:28:05.213Z,93898.91
2023-03-11T12:30:31.553Z,93889.03
2023-03-11T12:32:57.876Z,93896.53
2023-03-11T12:35:24.213Z,93897.91
2023-03-11T12:37:50.575Z,93901.84
2023-03-11T12:40:16.894Z,93885.50
2023-03-11T12:42:43.211Z,93886.69
2023-03-11T12:45:09.530Z,93890.75
2023-03-11T12:47:35.948Z,93897.31
2023-03-11T12:50:02.275Z,93888.66
2023-03-11T12:52:28.577Z,93889.31
2023-03-11T12:54:54.875Z,93885.88
2023-03-11T12:57:21.198Z,93891.94
2023-03-11T12:59:47.519Z,93890.69
2023-03-11T13:02:13.834Z,93896.44
2023-03-11T13:04:40.165Z,93886.31
2023-03-11T13:07:06.478Z,93893.94
2023-03-11T13:09:32.795Z,93900.84
2023-03-11T13:11:59.113Z,93891.56
2023-03-11T13:14:25.420Z,93895.91
2023-03-11T13:16:51.736Z,93894.38
2023-03-11T13:19:18.051Z,93887.69
2023-03-11T13:21:44.374Z,93893.66
2023-03-11T13:24:10.710Z,93896.06
2023-03-11T13:26:37.056Z,93895.97
2023-03-11T13:29:03.408Z,93897.84
2023-03-11T13:31:29.841Z,93893.88
2023-03-11T13:33:56.177Z,93884.06
2023-03-11T13:36:22.491Z,93895.34
2023-03-11T13:38:48.801Z,93897.78
2023-03-11T13:41:15.109Z,93900.19
2023-03-11T13:43:41.425Z,93900.72
2023-03-11T13:46:07.842Z,93901.34
2023-03-11T13:48:36.144Z,93905.13
2023-03-11T13:51:03.781Z,93897.03
2023-03-11T13:53:30.095Z,93910.56
2023-03-11T13:55:56.442Z,93912.84
2023-03-11T13:58:22.772Z,93919.31
2023-03-11T14:00:49.109Z,93914.72
2023-03-11T14:03:15.461Z,93915.47
2023-03-11T14:05:41.789Z,93916.88
2023-03-11T14:08:08.100Z,93917.16
2023-03-11T14:10:34.437Z,93920.66
2023-03-11T14:13:00.759Z,93925.13
2023-03-11T14:15:27.080Z,93917.84
2023-03-11T14:17:53.397Z,93909.06
2023-03-11T14:20:19.722Z,93918.59
2023-03-11T14:22:46.058Z,93926.28
2023-03-11T14:25:12.379Z,93920.47
2023-03-11T14:27:38.703Z,93927.69
2023-03-11T14:30:05.059Z,93931.81
2023-03-11T14:32:31.432Z,93931.28
2023-03-11T14:34:57.803Z,93922.28
2023-03-11T14:37:24.107Z,93921.03
2023-03-11T14:39:53.390Z,93935.59
2023-03-11T14:42:20.295Z,93934.78
2023-03-11T14:44:46.625Z,93928.84
2023-03-11T14:47:12.929Z,93932.16
2023-03-11T14:49:39.230Z,93937.03
2023-03-11T14:52:05.557Z,93940.47
2023-03-11T14:54:31.865Z,93940.19
2023-03-11T14:56:58.181Z,93947.72
2023-03-11T14:59:24.495Z,93950.81
2023-03-11T15:01:50.845Z,93937.09
2023-03-11T15:04:17.150Z,93947.13
2023-03-11T15:06:43.467Z,93946.56
2023-03-11T15:09:09.830Z,93946.00
2023-03-11T15:11:36.162Z,93946.69
2023-03-11T15:14:02.462Z,93945.63
2023-03-11T15:16:28.807Z,93947.03
2023-03-11T15:18:55.141Z,93941.84
2023-03-11T15:21:21.474Z,93941.28
2023-03-11T15:23:47.779Z,93943.25
2023-03-11T15:26:14.102Z,93936.03
2023-03-11T15:28:40.403Z,93951.75
2023-03-11T15:31:06.742Z,93947.31
2023-03-11T15:33:33.081Z,93951.63
2023-03-11T15:35:59.423Z,93956.47
2023-03-11T15:38:25.809Z,93951.50
2023-03-11T15:40:52.135Z,93953.84
2023-03-11T15:43:18.446Z,93965.69
2023-03-11T15:45:44.757Z,93970.72
2023-03-11T15:48:11.198Z,93961.16
2023-03-11T15:50:52.287Z,93960.63
2023-03-11T15:53:19.117Z,93963.38
2023-03-11T15:55:45.437Z,93966.91
2023-03-11T15:58:11.771Z,93971.56
2023-03-11T16:00:38.082Z,93968.28
2023-03-11T16:03:04.423Z,93981.00
2023-03-11T16:05:30.904Z,93988.03
2023-03-11T16:07:57.241Z,93987.03
2023-03-11T16:10:23.553Z,93980.06
2023-03-11T16:12:49.864Z,93981.69
2023-03-11T16:15:16.197Z,93982.53
2023-03-11T16:17:49.915Z,93985.91
2023-03-11T16:20:16.479Z,93989.97
2023-03-11T16:22:42.823Z,93991.59
2023-03-11T16:25:09.161Z,93989.97
2023-03-11T16:27:35.476Z,94007.25
2023-03-11T16:30:01.841Z,93997.78
2023-03-11T16:32:28.213Z,94008.09
2023-03-11T16:34:54.564Z,94001.56
2023-03-11T16:37:20.889Z,94013.47
2023-03-11T16:39:47.212Z,94021.63
2023-03-11T16:42:13.540Z,94026.69
2023-03-11T16:44:39.843Z,94017.06
2023-03-11T16:47:06.169Z,94011.84
2023-03-11T16:49:32.494Z,94008.59
2023-03-11T16:51:58.898Z,94014.94
2023-03-11T16:54:25.252Z,94015.28
2023-03-11T16:56:51.578Z,94021.53
2023-03-11T16:59:17.898Z,94022.44
2023-03-11T17:01:44.261Z,94022.16
2023-03-11T17:04:10.606Z,94024.16
2023-03-11T17:06:36.948Z,94040.00
2023-03-11T17:09:03.256Z,94043.56
2023-03-11T17:11:29.566Z,94039.69
2023-03-11T17:14:03.273Z,94052.25
2023-03-11T17:16:40.116Z,94056.00
2023-03-11T17:19:06.437Z,94063.22
2023-03-11T17:21:32.762Z,94055.19
2023-03-11T17:23:59.075Z,94053.72
2023-03-11T17:26:25.390Z,94053.09
2023-03-11T17:28:51.716Z,94058.69
2023-03-11T17:31:18.092Z,94068.31
2023-03-11T17:33:44.457Z,94056.38
2023-03-11T17:36:10.854Z,94076.47
2023-03-11T17:38:37.213Z,94079.25
2023-03-11T17:41:03.543Z,94073.56
2023-03-11T17:43:29.866Z,94081.56
2023-03-11T17:45:56.190Z,94090.69
2023-03-11T17:48:22.491Z,94098.38
2023-03-11T17:50:48.831Z,94094.16
2023-03-11T17:53:15.150Z,94095.47
2023-03-11T17:55:41.471Z,94087.47
2023-03-11T17:58:07.803Z,94101.66
2023-03-11T18:00:34.138Z,94104.41
2023-03-11T18:03:00.479Z,94110.00
2023-03-11T18:05:26.799Z,94106.75
2023-03-11T18:07:53.105Z,94097.88
2023-03-11T18:10:19.433Z,94114.69
2023-03-11T18:12:45.757Z,94112.09
2023-03-11T18:15:12.087Z,94112.59
2023-03-11T18:17:38.410Z,94115.53
2023-03-11T18:20:04.732Z,94112.44
2023-03-11T18:22:34.107Z,94126.31
2023-03-11T18:25:01.544Z,94120.63
2023-03-11T18:27:27.855Z,94119.94
2023-03-11T18:29:54.159Z,94120.63
2023-03-11T18:32:20.526Z,94117.53
2023-03-11T18:34:46.883Z,94121.94
2023-03-11T18:37:13.227Z,94120.16
2023-03-11T18:39:39.558Z,94129.13
2023-03-11T18:42:05.877Z,94126.03
2023-03-11T18:44:32.191Z,94126.34
2023-03-11T18:46:58.519Z,94137.41
2023-03-11T18:49:24.850Z,94124.88
2023-03-11T18:51:51.187Z,94141.69
2023-03-11T18:54:17.506Z,94136.78
2023-03-11T18:56:43.837Z,94145.78
2023-03-11T18:59:10.187Z,94135.81
2023-03-11T19:01:36.565Z,94137.31
2023-03-11T19:04:02.961Z,94153.25
2023-03-11T19:06:29.290Z,94147.84
2023-03-11T19:08:55.644Z,94152.00
2023-03-11T19:11:21.996Z,94158.69
2023-03-11T19:13:48.376Z,94163.09
2023-03-11T19:16:14.717Z,94167.69
2023-03-11T19:18:41.035Z,94172.22
2023-03-11T19:21:07.376Z,94158.88
2023-03-11T19:23:33.703Z,94167.69
2023-03-11T19:26:03.443Z,94168.66
2023-03-11T19:28:30.057Z,94161.47
2023-03-11T19:30:56.405Z,94165.72
2023-03-11T19:33:22.771Z,94170.13
2023-03-11T19:35:49.127Z,94178.13
2023-03-11T19:38:15.456Z,94177.16
2023-03-11T19:40:41.783Z,94171.59
2023-03-11T19:43:08.170Z,94181.56
2023-03-11T19:45:34.517Z,94175.69
2023-03-11T19:48:00.856Z,94170.47
2023-03-11T19:50:27.156Z,94174.72
2023-03-11T19:52:53.531Z,94178.44
2023-03-11T19:55:19.866Z,94188.06
2023-03-11T19:57:46.171Z,94190.38
2023-03-11T20:00:12.505Z,94187.91
2023-03-11T20:02:38.848Z,94178.59
2023-03-11T20:05:05.288Z,94188.88
2023-03-11T20:07:31.640Z,94197.53
2023-03-11T20:09:57.962Z,94184.00
2023-03-11T20:12:24.310Z,94193.28
2023-03-11T20:14:50.654Z,94193.13
2023-03-11T20:17:16.972Z,94190.84
2023-03-11T20:19:43.378Z,94192.19
2023-03-11T20:22:09.747Z,94189.38
2023-03-11T20:24:36.069Z,94202.28
2023-03-11T20:27:02.477Z,94213.06
2023-03-11T20:29:28.888Z,94210.94
2023-03-11T20:31:55.247Z,94220.09
2023-03-11T20:34:21.623Z,94215.19
2023-03-11T20:36:47.949Z,94224.00
2023-03-11T20:39:14.273Z,94226.78
2023-03-11T20:41:40.590Z,94219.94
2023-03-11T20:44:06.961Z,94221.06
2023-03-11T20:46:33.322Z,94226.16
2023-03-11T20:48:59.653Z,94225.63
2023-03-11T20:51:26.134Z,94224.47
2023-03-11T20:53:52.478Z,94225.16
2023-03-11T20:56:18.861Z,94235.78
2023-03-11T20:58:45.170Z,94237.88
2023-03-11T21:01:11.510Z,94240.84
2023-03-11T21:03:38.015Z,94241.31
2023-03-11T21:06:04.404Z,94241.47
2023-03-11T21:08:30.804Z,94244.44
2023-03-11T21:10:57.209Z,94251.28
2023-03-11T21:13:23.522Z,94254.53
2023-03-11T21:15:49.925Z,94257.00
2023-03-11T21:18:16.440Z,94247.06
2023-03-11T21:20:42.750Z,94256.00
2023-03-11T21:23:09.092Z,94250.97
2023-03-11T21:25:35.402Z,94258.63
2023-03-11T21:28:01.727Z,94266.00
2023-03-11T21:30:28.110Z,94273.66
2023-03-11T21:32:54.590Z,94263.38
2023-03-11T21:35:21.044Z,94258.97
2023-03-11T21:37:47.442Z,94264.19
2023-03-11T21:40:13.991Z,94262.72
2023-03-11T21:42:40.383Z,94261.91
2023-03-11T21:45:06.703Z,94267.63
2023-03-11T21:47:33.109Z,94266.81
2023-03-11T21:49:59.530Z,94266.81
2023-03-11T21:52:25.862Z,94277.09
2023-03-11T21:54:52.314Z,94277.25
2023-03-11T21:57:18.709Z,94285.28
2023-03-11T21:59:45.142Z,94285.56
2023-03-11T22:02:11.645Z,94291.97
2023-03-11T22:04:38.147Z,94286.09
2023-03-11T22:07:04.639Z,94296.84
2023-03-11T22:09:30.967Z,94290.81
2023-03-11T22:11:57.500Z,94296.72
2023-03-11T22:14:24.040Z,94294.91
2023-03-11T22:16:50.571Z,94298.50
2023-03-11T22:19:16.963Z,94302.25
2023-03-11T22:21:43.281Z,94304.69
2023-03-11T22:24:09.675Z,94312.03
2023-03-11T22:26:35.995Z,94316.63
2023-03-11T22:29:03.955Z,94326.94
2023-03-11T22:31:30.636Z,94329.03
2023-03-11T22:33:57.058Z,94342.97
2023-03-11T22:36:23.394Z,94338.53
2023-03-11T22:38:49.715Z,94343.78
2023-03-11T22:41:16.041Z,94342.44
2023-03-11T22:43:42.368Z,94349.00
2023-03-11T22:46:08.762Z,94343.09
2023-03-11T22:48:35.148Z,94341.44
2023-03-11T22:51:01.505Z,94343.25
2023-03-11T22:53:27.843Z,94336.06
2023-03-11T22:55:54.218Z,94348.00
2023-03-11T22:58:20.548Z,94349.63
2023-03-11T23:00:46.926Z,94346.69
2023-03-11T23:03:13.347Z,94338.03
2023-03-11T23:05:39.710Z,94342.28
2023-03-11T23:08:06.028Z,94335.25
2023-03-11T23:10:32.334Z,94330.38
2023-03-11T23:12:58.651Z,94329.91
2023-03-11T23:15:24.959Z,94323.50
2023-03-11T23:17:51.281Z,94332.34
2023-03-11T23:20:17.601Z,94330.19
2023-03-11T23:22:43.975Z,94333.78
2023-03-11T23:25:10.326Z,94342.78
2023-03-11T23:27:36.638Z,94349.97
2023-03-11T23:30:02.959Z,94353.09
2023-03-11T23:32:29.365Z,94350.47
2023-03-11T23:34:55.732Z,94355.16
2023-03-11T23:37:22.056Z,94354.06
2023-03-11T23:39:48.386Z,94346.38
2023-03-11T23:42:25.129Z,94353.53
2023-03-11T23:44:51.974Z,94358.78
2023-03-11T23:47:18.308Z,94356.16
2023-03-11T23:49:44.637Z,94348.66
2023-03-11T23:52:10.955Z,94348.66
2023-03-11T23:54:37.266Z,94358.13
2023-03-11T23:57:03.584Z,94348.00
2023-03-11T23:59:29.912Z,94361.38
